createdAt,value
2022-12-01T00:01:08.562Z,3.06
2022-12-01T00:03:35.696Z,2.98
2022-12-01T00:06:05.260Z,2.91
2022-12-01T00:08:32.325Z,2.88
2022-12-01T00:11:06.706Z,2.82
2022-12-01T00:13:34.022Z,2.74
2022-12-01T00:16:12.034Z,2.78
2022-12-01T00:18:38.634Z,2.76
2022-12-01T00:21:05.362Z,2.74
2022-12-01T00:23:31.990Z,2.67
2022-12-01T00:26:05.453Z,2.67
2022-12-01T00:28:32.031Z,2.63
2022-12-01T00:30:58.930Z,2.56
2022-12-01T00:33:25.470Z,2.53
2022-12-01T00:35:58.740Z,2.45
2022-12-01T00:38:25.753Z,2.41
2022-12-01T00:40:52.281Z,2.31
2022-12-01T00:43:18.760Z,2.27
2022-12-01T00:45:45.310Z,2.26
2022-12-01T00:48:11.915Z,2.18
2022-12-01T00:50:38.492Z,2.13
2022-12-01T00:53:05.019Z,2.06
2022-12-01T00:55:31.528Z,2.01
2022-12-01T00:57:59.173Z,1.97
2022-12-01T01:00:25.738Z,1.93
2022-12-01T01:02:52.325Z,1.89
2022-12-01T01:05:18.965Z,1.90
2022-12-01T01:07:45.603Z,1.86
2022-12-01T01:10:12.639Z,1.79
2022-12-01T01:12:39.153Z,1.75
2022-12-01T01:15:07.416Z,1.73
2022-12-01T01:17:34.335Z,1.69
2022-12-01T01:20:00.881Z,1.62
2022-12-01T01:22:27.423Z,1.63
2022-12-01T01:24:53.957Z,1.58
2022-12-01T01:27:20.631Z,1.54
2022-12-01T01:29:47.575Z,1.53
2022-12-01T01:32:14.421Z,1.44
2022-12-01T01:34:40.945Z,1.42
2022-12-01T01:37:07.504Z,1.42
2022-12-01T01:39:34.076Z,1.40
2022-12-01T01:42:00.585Z,1.43
2022-12-01T01:44:48.804Z,1.43
2022-12-01T01:47:26.922Z,1.36
2022-12-01T01:49:55.987Z,1.29
2022-12-01T01:52:23.610Z,1.22
2022-12-01T01:54:54.737Z,1.15
2022-12-01T01:57:26.834Z,1.11
2022-12-01T01:59:59.162Z,1.07
2022-12-01T02:02:25.773Z,1.06
2022-12-01T02:04:58.605Z,1.06
2022-12-01T02:07:25.505Z,1.02
2022-12-01T02:09:54.210Z,1.02
2022-12-01T02:12:46.517Z,1.05
2022-12-01T02:15:23.294Z,1.08
2022-12-01T02:18:15.155Z,1.00
2022-12-01T02:21:00.081Z,0.95
2022-12-01T02:24:03.393Z,0.87
2022-12-01T02:26:45.099Z,0.81
2022-12-01T02:29:45.564Z,0.79
2022-12-01T02:32:50.299Z,0.73
2022-12-01T02:35:29.243Z,0.73
2022-12-01T02:38:10.735Z,0.63
2022-12-01T02:40:46.898Z,0.59
2022-12-01T02:43:52.907Z,0.54
2022-12-01T02:46:28.171Z,0.49
2022-12-01T02:48:59.781Z,0.36
2022-12-01T02:51:32.252Z,0.27
2022-12-01T02:54:00.631Z,0.11
2022-12-01T02:56:27.656Z,-0.04
2022-12-01T02:58:54.361Z,-0.15
2022-12-01T03:01:46.051Z,-0.15
2022-12-01T03:04:40.609Z,-0.21
2022-12-01T03:07:12.225Z,-0.34
2022-12-01T03:09:47.515Z,-0.44
2022-12-01T03:12:42.150Z,-0.49
2022-12-01T03:15:12.174Z,-0.49
2022-12-01T03:18:19.874Z,-0.49
2022-12-01T03:20:58.166Z,-0.56
2022-12-01T03:23:29.422Z,-0.61
2022-12-01T03:25:59.091Z,-0.61
2022-12-01T03:28:37.869Z,-0.60
2022-12-01T03:31:09.258Z,-0.61
2022-12-01T03:33:47.058Z,-0.65
2022-12-01T03:36:20.031Z,-0.75
2022-12-01T03:38:52.223Z,-0.82
2022-12-01T03:41:25.265Z,-0.85
2022-12-01T03:43:57.608Z,-0.87
2022-12-01T03:46:41.281Z,-0.85
2022-12-01T03:49:09.761Z,-0.88
2022-12-01T03:51:48.261Z,-0.84
2022-12-01T03:54:33.727Z,-0.88
2022-12-01T03:57:05.494Z,-0.84
2022-12-01T03:59:35.960Z,-0.81
2022-12-01T04:02:02.709Z,-0.93
2022-12-01T04:04:29.264Z,-0.92
2022-12-01T04:06:55.768Z,-0.98
2022-12-01T04:09:22.287Z,-1.01
2022-12-01T04:12:07.136Z,-1.06
2022-12-01T04:14:33.673Z,-1.04
2022-12-01T04:17:00.200Z,-0.97
2022-12-01T04:19:26.716Z,-0.91
2022-12-01T04:21:53.466Z,-0.87
2022-12-01T04:24:20.013Z,-0.87
2022-12-01T04:26:46.902Z,-0.94
2022-12-01T04:29:13.759Z,-1.00
2022-12-01T04:31:40.816Z,-1.01
2022-12-01T04:34:07.615Z,-1.08
2022-12-01T04:36:34.941Z,-1.20
2022-12-01T04:39:02.335Z,-1.25
2022-12-01T04:41:28.943Z,-1.32
2022-12-01T04:43:56.065Z,-1.33
2022-12-01T04:46:24.402Z,-1.32
2022-12-01T04:48:51.064Z,-1.25
2022-12-01T04:51:17.945Z,-1.19
2022-12-01T04:53:44.656Z,-1.12
2022-12-01T04:56:11.346Z,-1.05
2022-12-01T04:58:38.026Z,-0.98
2022-12-01T05:01:06.884Z,-0.95
2022-12-01T05:03:37.592Z,-0.92
2022-12-01T05:06:10.905Z,-0.91
2022-12-01T05:08:38.058Z,-0.91
2022-12-01T05:11:07.726Z,-0.93
2022-12-01T05:13:42.321Z,-1.02
2022-12-01T05:16:14.960Z,-1.11
2022-12-01T05:18:42.243Z,-1.11
2022-12-01T05:21:10.349Z,-1.06
2022-12-01T05:23:38.104Z,-1.05
2022-12-01T05:26:08.948Z,-1.03
2022-12-01T05:28:36.026Z,-1.02
2022-12-01T05:31:03.159Z,-1.03
2022-12-01T05:33:30.222Z,-1.03
2022-12-01T05:35:57.132Z,-1.02
2022-12-01T05:38:23.745Z,-1.04
2022-12-01T05:40:52.572Z,-1.04
2022-12-01T05:43:28.578Z,-1.11
2022-12-01T05:45:56.873Z,-1.20
2022-12-01T05:48:23.878Z,-1.26
2022-12-01T05:50:50.767Z,-1.33
2022-12-01T05:53:17.833Z,-1.40
2022-12-01T05:55:44.777Z,-1.44
2022-12-01T05:58:11.757Z,-1.43
2022-12-01T06:00:45.254Z,-1.40
2022-12-01T06:03:12.904Z,-1.42
2022-12-01T06:05:39.865Z,-1.41
2022-12-01T06:08:07.013Z,-1.39
2022-12-01T06:10:33.923Z,-1.41
2022-12-01T06:13:00.398Z,-1.42
2022-12-01T06:15:27.277Z,-1.43
2022-12-01T06:17:53.905Z,-1.43
2022-12-01T06:20:20.508Z,-1.45
2022-12-01T06:22:47.028Z,-1.47
2022-12-01T06:25:13.530Z,-1.47
2022-12-01T06:27:40.243Z,-1.50
2022-12-01T06:30:07.486Z,-1.50
2022-12-01T06:32:34.044Z,-1.45
2022-12-01T06:35:00.796Z,-1.51
2022-12-01T06:37:28.262Z,-1.52
2022-12-01T06:39:54.898Z,-1.51
2022-12-01T06:42:21.490Z,-1.53
2022-12-01T06:44:48.028Z,-1.54
2022-12-01T06:47:15.923Z,-1.56
2022-12-01T06:49:42.429Z,-1.59
2022-12-01T06:52:10.089Z,-1.57
2022-12-01T06:54:37.606Z,-1.57
2022-12-01T06:57:04.812Z,-1.56
2022-12-01T06:59:31.681Z,-1.60
2022-12-01T07:01:58.976Z,-1.69
2022-12-01T07:04:25.643Z,-1.66
2022-12-01T07:06:52.191Z,-1.65
2022-12-01T07:09:18.795Z,-1.57
2022-12-01T07:11:45.302Z,-1.56
2022-12-01T07:14:22.059Z,-1.47
2022-12-01T07:16:48.691Z,-1.42
2022-12-01T07:19:15.241Z,-1.38
2022-12-01T07:21:41.772Z,-1.34
2022-12-01T07:24:08.569Z,-1.31
2022-12-01T07:26:35.130Z,-1.24
2022-12-01T07:29:01.647Z,-1.17
2022-12-01T07:31:28.205Z,-1.06
2022-12-01T07:33:54.730Z,-0.99
2022-12-01T07:36:21.274Z,-0.89
2022-12-01T07:38:47.901Z,-0.78
2022-12-01T07:41:16.735Z,-0.67
2022-12-01T07:43:43.429Z,-0.50
2022-12-01T07:46:18.693Z,-0.32
2022-12-01T07:48:47.133Z,-0.17
2022-12-01T07:51:16.730Z,-0.09
2022-12-01T07:53:44.771Z,0.03
2022-12-01T07:56:11.663Z,0.22
2022-12-01T07:58:38.521Z,0.33
2022-12-01T08:01:10.441Z,0.48
2022-12-01T08:03:37.656Z,0.61
2022-12-01T08:06:05.924Z,0.78
2022-12-01T08:08:35.236Z,1.01
2022-12-01T08:11:04.361Z,1.19
2022-12-01T08:13:31.294Z,1.39
2022-12-01T08:15:58.071Z,1.72
2022-12-01T08:18:24.865Z,1.93
2022-12-01T08:20:51.802Z,2.19
2022-12-01T08:23:18.436Z,2.51
2022-12-01T08:25:44.994Z,2.68
2022-12-01T08:28:11.563Z,3.03
2022-12-01T08:30:38.138Z,3.33
2022-12-01T08:33:04.700Z,3.60
2022-12-01T08:35:31.184Z,3.97
2022-12-01T08:37:57.700Z,4.56
2022-12-01T08:40:24.281Z,5.09
2022-12-01T08:42:53.028Z,5.33
2022-12-01T08:45:20.408Z,5.54
2022-12-01T08:47:47.556Z,6.16
2022-12-01T08:50:14.263Z,6.28
2022-12-01T08:52:40.870Z,6.84
2022-12-01T08:55:08.202Z,7.19
2022-12-01T08:57:34.773Z,7.84
2022-12-01T09:00:01.315Z,8.27
2022-12-01T09:02:28.193Z,8.86
2022-12-01T09:04:55.830Z,9.20
2022-12-01T09:07:26.358Z,9.12
2022-12-01T09:09:53.289Z,9.00
2022-12-01T09:12:19.870Z,9.61
2022-12-01T09:14:48.371Z,9.92
2022-12-01T09:17:16.649Z,9.85
2022-12-01T09:19:44.069Z,9.92
2022-12-01T09:22:11.702Z,10.36
2022-12-01T09:24:38.452Z,11.07
2022-12-01T09:27:05.314Z,11.11
2022-12-01T09:29:32.546Z,11.40
2022-12-01T09:32:00.405Z,11.51
2022-12-01T09:34:29.118Z,11.51
2022-12-01T09:36:57.681Z,11.58
2022-12-01T09:39:24.737Z,11.65
2022-12-01T09:42:08.553Z,11.69
2022-12-01T09:44:44.392Z,11.73
2022-12-01T09:47:30.793Z,11.99
2022-12-01T09:50:05.687Z,11.89
2022-12-01T09:52:42.230Z,11.77
2022-12-01T09:55:17.609Z,11.61
2022-12-01T09:57:47.878Z,11.63
2022-12-01T10:00:27.820Z,11.35
2022-12-01T10:03:01.101Z,11.25
2022-12-01T10:05:36.457Z,11.09
2022-12-01T10:08:07.986Z,10.87
2022-12-01T10:10:43.070Z,10.60
2022-12-01T10:13:17.369Z,10.52
2022-12-01T10:15:50.532Z,10.51
2022-12-01T10:18:26.085Z,10.59
2022-12-01T10:20:52.816Z,10.40
2022-12-01T10:23:22.068Z,10.25
2022-12-01T10:26:09.843Z,10.62
2022-12-01T10:29:05.330Z,11.38
2022-12-01T10:31:47.701Z,12.16
2022-12-01T10:34:25.219Z,12.75
2022-12-01T10:36:51.785Z,13.33
2022-12-01T10:39:33.693Z,13.99
2022-12-01T10:42:06.809Z,14.54
2022-12-01T10:44:34.700Z,14.89
2022-12-01T10:47:02.318Z,15.29
2022-12-01T10:49:40.076Z,15.79
2022-12-01T10:52:07.633Z,16.00
2022-12-01T10:54:38.987Z,16.40
2022-12-01T10:57:07.755Z,16.61
2022-12-01T10:59:54.433Z,16.67
2022-12-01T11:02:23.712Z,16.35
2022-12-01T11:04:55.128Z,15.95
2022-12-01T11:07:46.462Z,15.57
2022-12-01T11:10:23.905Z,15.33
2022-12-01T11:13:23.746Z,14.95
2022-12-01T11:15:58.957Z,14.58
2022-12-01T11:18:30.008Z,14.47
2022-12-01T11:21:27.195Z,14.07
2022-12-01T11:23:55.760Z,14.05
2022-12-01T11:26:34.564Z,14.23
2022-12-01T11:29:07.684Z,14.57
2022-12-01T11:31:48.029Z,14.94
2022-12-01T11:34:22.511Z,15.60
2022-12-01T11:36:53.516Z,15.99
2022-12-01T11:39:39.915Z,16.60
2022-12-01T11:42:15.104Z,17.26
2022-12-01T11:44:51.705Z,17.57
2022-12-01T11:47:27.888Z,17.82
2022-12-01T11:50:03.345Z,17.45
2022-12-01T11:52:34.516Z,16.70
2022-12-01T11:55:13.082Z,15.39
2022-12-01T11:57:42.774Z,14.80
2022-12-01T12:00:17.492Z,14.22
2022-12-01T12:02:57.740Z,13.74
2022-12-01T12:05:57.601Z,13.82
2022-12-01T12:09:00.128Z,14.02
2022-12-01T12:11:39.238Z,14.33
2022-12-01T12:14:13.133Z,14.83
2022-12-01T12:16:54.798Z,14.59
2022-12-01T12:19:33.901Z,14.94
2022-12-01T12:22:24.503Z,15.11
2022-12-01T12:25:09.735Z,15.74
2022-12-01T12:28:06.710Z,16.58
2022-12-01T12:31:00.997Z,16.64
2022-12-01T12:33:41.070Z,16.91
2022-12-01T12:36:26.113Z,17.06
2022-12-01T12:39:16.277Z,16.85
2022-12-01T12:41:46.580Z,17.19
2022-12-01T12:44:37.954Z,17.13
2022-12-01T12:47:36.878Z,17.20
2022-12-01T12:50:25.752Z,17.08
2022-12-01T12:52:59.471Z,16.57
2022-12-01T12:55:57.994Z,16.42
2022-12-01T12:58:34.545Z,16.75
2022-12-01T13:01:07.094Z,16.56
2022-12-01T13:03:42.668Z,16.46
2022-12-01T13:06:15.859Z,16.69
2022-12-01T13:09:08.475Z,16.86
2022-12-01T13:11:59.526Z,16.78
2022-12-01T13:14:30.649Z,16.50
2022-12-01T13:17:25.501Z,16.54
2022-12-01T13:19:52.175Z,16.25
2022-12-01T13:22:24.626Z,16.21
2022-12-01T13:24:51.277Z,16.16
2022-12-01T13:27:22.149Z,15.89
2022-12-01T13:29:51.969Z,15.80
2022-12-01T13:32:30.677Z,15.43
2022-12-01T13:34:59.169Z,15.66
2022-12-01T13:37:31.936Z,15.63
2022-12-01T13:40:10.663Z,15.68
2022-12-01T13:42:39.755Z,15.68
2022-12-01T13:45:20.110Z,15.92
2022-12-01T13:47:46.562Z,15.23
2022-12-01T13:50:43.139Z,14.80
2022-12-01T13:53:19.976Z,14.89
2022-12-01T13:56:11.295Z,14.51
2022-12-01T13:58:47.586Z,14.25
2022-12-01T14:01:20.606Z,14.08
2022-12-01T14:03:53.630Z,14.13
2022-12-01T14:06:39.024Z,14.01
2022-12-01T14:09:16.245Z,13.76
2022-12-01T14:12:02.753Z,13.19
2022-12-01T14:14:36.679Z,13.07
2022-12-01T14:17:04.361Z,12.85
2022-12-01T14:19:46.356Z,12.59
2022-12-01T14:22:34.526Z,12.05
2022-12-01T14:25:01.933Z,11.70
2022-12-01T14:27:42.384Z,11.26
2022-12-01T14:30:45.056Z,11.01
2022-12-01T14:33:36.294Z,10.52
2022-12-01T14:36:06.490Z,10.24
2022-12-01T14:38:33.534Z,9.91
2022-12-01T14:41:00.186Z,9.72
2022-12-01T14:43:46.961Z,9.64
2022-12-01T14:46:20.984Z,9.40
2022-12-01T14:48:48.156Z,8.98
2022-12-01T14:51:28.259Z,8.70
2022-12-01T14:53:57.184Z,8.66
2022-12-01T14:56:25.956Z,8.61
2022-12-01T14:58:55.479Z,8.48
2022-12-01T15:01:23.098Z,8.18
2022-12-01T15:03:52.286Z,8.05
2022-12-01T15:06:24.467Z,7.86
2022-12-01T15:12:09.580Z,7.58
2022-12-01T15:14:49.527Z,7.33
2022-12-01T15:17:35.839Z,7.15
2022-12-01T15:20:03.206Z,7.16
2022-12-01T15:22:33.343Z,6.92
2022-12-01T15:25:13.433Z,6.81
2022-12-01T15:27:39.995Z,6.67
2022-12-01T15:30:14.271Z,6.49
2022-12-01T15:32:45.691Z,6.33
2022-12-01T15:35:20.954Z,6.16
2022-12-01T15:37:48.388Z,6.22
2022-12-01T15:43:24.694Z,6.14
2022-12-01T15:45:59.682Z,5.90
2022-12-01T15:48:33.136Z,5.76
2022-12-01T15:51:08.893Z,5.62
2022-12-01T15:53:45.050Z,5.67
2022-12-01T15:56:12.498Z,5.63
2022-12-01T15:59:09.639Z,5.45
2022-12-01T16:01:37.270Z,5.30
2022-12-01T16:04:07.508Z,5.13
2022-12-01T16:06:38.389Z,5.11
2022-12-01T16:09:22.302Z,4.92
2022-12-01T16:12:22.705Z,5.17
2022-12-01T16:14:50.907Z,5.19
2022-12-01T16:17:17.687Z,5.00
2022-12-01T16:19:45.519Z,4.70
2022-12-01T16:22:12.064Z,4.61
2022-12-01T16:24:46.895Z,4.69
2022-12-01T16:27:30.844Z,4.70
2022-12-01T16:30:01.344Z,4.68
2022-12-01T16:32:42.178Z,4.71
2022-12-01T16:35:20.837Z,4.47
2022-12-01T16:37:47.413Z,4.25
2022-12-01T16:40:14.918Z,4.06
2022-12-01T16:42:41.427Z,3.95
2022-12-01T16:45:13.733Z,3.88
2022-12-01T16:47:41.536Z,3.91
2022-12-01T16:50:14.121Z,3.92
2022-12-01T16:52:45.528Z,3.92
2022-12-01T16:55:27.060Z,3.93
2022-12-01T16:57:53.646Z,3.92
2022-12-01T17:00:20.631Z,3.85
2022-12-01T17:02:47.243Z,3.76
2022-12-01T17:05:13.956Z,3.70
2022-12-01T17:07:40.506Z,3.55
2022-12-01T17:10:07.599Z,3.46
2022-12-01T17:12:34.109Z,3.44
2022-12-01T17:15:00.617Z,3.33
2022-12-01T17:17:29.689Z,3.17
2022-12-01T17:19:56.241Z,3.13
2022-12-01T17:22:23.003Z,3.13
2022-12-01T17:24:50.042Z,3.00
2022-12-01T17:27:19.255Z,2.95
2022-12-01T17:29:46.423Z,2.92
2022-12-01T17:32:14.481Z,2.93
2022-12-01T17:34:40.999Z,2.95
2022-12-01T17:37:07.814Z,2.94
2022-12-01T17:39:34.325Z,2.88
2022-12-01T17:42:00.951Z,2.89
2022-12-01T17:44:27.775Z,2.82
2022-12-01T17:46:54.541Z,2.80
2022-12-01T17:49:21.153Z,2.74
2022-12-01T17:51:47.703Z,2.68
2022-12-01T17:54:14.530Z,2.64
2022-12-01T17:56:41.180Z,2.68
2022-12-01T17:59:07.708Z,2.58
2022-12-01T18:01:34.383Z,2.53
2022-12-01T18:04:01.402Z,2.49
2022-12-01T18:06:28.128Z,2.54
2022-12-01T18:08:55.076Z,2.52
2022-12-01T18:11:22.861Z,2.52
2022-12-01T18:13:51.441Z,2.45
2022-12-01T18:16:26.952Z,2.47
2022-12-01T18:18:54.721Z,2.38
2022-12-01T18:21:23.869Z,2.34
2022-12-01T18:23:51.265Z,2.28
2022-12-01T18:26:19.551Z,2.25
2022-12-01T18:28:46.142Z,2.17
2022-12-01T18:31:16.161Z,2.11
2022-12-01T18:33:44.722Z,2.09
2022-12-01T18:36:18.512Z,2.00
2022-12-01T18:38:47.154Z,1.97
2022-12-01T18:41:14.381Z,1.85
2022-12-01T18:43:41.455Z,1.76
2022-12-01T18:46:09.550Z,1.66
2022-12-01T18:48:36.134Z,1.72
2022-12-01T18:51:05.129Z,1.61
2022-12-01T18:53:32.208Z,1.61
2022-12-01T18:56:06.796Z,1.47
2022-12-01T18:58:33.687Z,1.33
2022-12-01T19:01:01.400Z,1.30
2022-12-01T19:03:32.482Z,1.31
2022-12-01T19:05:59.282Z,1.31
2022-12-01T19:08:25.845Z,1.32
2022-12-01T19:11:00.333Z,1.27
2022-12-01T19:13:27.430Z,1.14
2022-12-01T19:15:54.059Z,1.10
2022-12-01T19:18:20.620Z,1.13
2022-12-01T19:20:47.261Z,1.07
2022-12-01T19:23:13.965Z,0.99
2022-12-01T19:25:40.501Z,1.01
2022-12-01T19:28:08.115Z,1.01
2022-12-01T19:30:34.996Z,1.02
2022-12-01T19:33:01.490Z,0.97
2022-12-01T19:35:28.005Z,0.87
2022-12-01T19:37:54.518Z,0.90
2022-12-01T19:40:21.032Z,0.91
2022-12-01T19:42:47.580Z,0.89
2022-12-01T19:45:14.306Z,0.92
2022-12-01T19:47:40.812Z,0.94
2022-12-01T19:50:07.918Z,0.98
2022-12-01T19:52:36.026Z,1.02
2022-12-01T19:55:03.160Z,0.98
2022-12-01T19:57:29.712Z,0.97
2022-12-01T19:59:56.222Z,1.08
2022-12-01T20:02:28.866Z,1.10
2022-12-01T20:04:56.557Z,1.10
2022-12-01T20:07:23.350Z,1.11
2022-12-01T20:09:50.332Z,1.11
2022-12-01T20:12:17.178Z,1.11
2022-12-01T20:14:43.701Z,1.05
2022-12-01T20:17:15.542Z,1.01
2022-12-01T20:19:42.512Z,1.00
2022-12-01T20:22:09.030Z,0.96
2022-12-01T20:24:36.772Z,0.88
2022-12-01T20:27:03.405Z,0.83
2022-12-01T20:29:30.240Z,0.78
2022-12-01T20:31:59.869Z,0.70
2022-12-01T20:34:32.648Z,0.64
2022-12-01T20:36:59.501Z,0.59
2022-12-01T20:39:27.021Z,0.56
2022-12-01T20:41:53.703Z,0.39
2022-12-01T20:44:20.638Z,0.28
2022-12-01T20:46:47.720Z,0.16
2022-12-01T20:49:16.980Z,0.09
2022-12-01T20:51:43.749Z,0.03
2022-12-01T20:54:30.002Z,-0.02
2022-12-01T20:56:57.793Z,-0.04
2022-12-01T20:59:24.848Z,-0.18
2022-12-01T21:01:51.357Z,-0.21
2022-12-01T21:04:18.002Z,-0.35
2022-12-01T21:06:44.702Z,-0.29
2022-12-01T21:09:13.047Z,-0.29
2022-12-01T21:12:04.670Z,-0.35
2022-12-01T21:14:42.267Z,-0.42
2022-12-01T21:17:21.950Z,-0.54
2022-12-01T21:20:21.329Z,-0.58
2022-12-01T21:22:49.984Z,-0.63
2022-12-01T21:25:21.174Z,-0.65
2022-12-01T21:27:48.401Z,-0.68
2022-12-01T21:30:17.113Z,-0.77
2022-12-01T21:32:44.868Z,-0.74
2022-12-01T21:35:18.825Z,-0.75
2022-12-01T21:37:46.225Z,-0.80
2022-12-01T21:40:18.636Z,-0.80
2022-12-01T21:42:45.442Z,-0.78
2022-12-01T21:45:28.404Z,-0.71
2022-12-01T21:48:13.704Z,-0.69
2022-12-01T21:50:40.262Z,-0.68
2022-12-01T21:53:18.329Z,-0.69
2022-12-01T21:55:47.066Z,-0.80
2022-12-01T21:58:29.626Z,-0.78
2022-12-01T22:00:59.515Z,-0.83
2022-12-01T22:03:46.329Z,-0.81
2022-12-01T22:06:30.937Z,-0.88
2022-12-01T22:09:11.783Z,-0.85
2022-12-01T22:11:38.325Z,-0.78
2022-12-01T22:14:15.491Z,-0.83
2022-12-01T22:16:49.942Z,-0.82
2022-12-01T22:19:16.409Z,-0.84
2022-12-01T22:21:48.517Z,-0.81
2022-12-01T22:24:23.951Z,-0.77
2022-12-01T22:26:57.973Z,-0.70
2022-12-01T22:29:34.173Z,-0.63
2022-12-01T22:32:13.126Z,-0.62
2022-12-01T22:34:44.961Z,-0.60
2022-12-01T22:37:40.165Z,-0.59
2022-12-01T22:40:38.520Z,-0.56
2022-12-01T22:43:17.281Z,-0.50
2022-12-01T22:45:46.609Z,-0.48
2022-12-01T22:48:22.706Z,-0.47
2022-12-01T22:50:51.903Z,-0.46
2022-12-01T22:53:25.618Z,-0.46
2022-12-01T22:55:56.498Z,-0.43
2022-12-01T22:58:31.399Z,-0.40
2022-12-01T23:01:07.796Z,-0.39
2022-12-01T23:03:34.592Z,-0.37
2022-12-01T23:06:01.441Z,-0.36
2022-12-01T23:08:27.956Z,-0.36
2022-12-01T23:10:54.490Z,-0.34
2022-12-01T23:13:23.219Z,-0.32
2022-12-01T23:15:52.965Z,-0.24
2022-12-01T23:18:24.569Z,-0.23
2022-12-01T23:20:56.398Z,-0.24
2022-12-01T23:23:27.409Z,-0.22
2022-12-01T23:25:54.242Z,-0.19
2022-12-01T23:28:21.311Z,-0.20
2022-12-01T23:30:50.937Z,-0.25
2022-12-01T23:33:29.729Z,-0.24
2022-12-01T23:36:00.626Z,-0.22
2022-12-01T23:38:42.324Z,-0.21
2022-12-01T23:41:25.705Z,-0.21
2022-12-01T23:43:55.446Z,-0.21
2022-12-01T23:46:25.167Z,-0.20
2022-12-01T23:48:56.403Z,-0.22
2022-12-01T23:51:28.127Z,-0.27
2022-12-01T23:53:56.537Z,-0.26
2022-12-01T23:56:26.711Z,-0.31
2022-12-01T23:58:55.787Z,-0.30
